Time;durP1;ratioP1;P1;durP2;ratioP2;P2;SDS_P1;SDS_P2;PMS_P1;PMS_P2;Temp;Humidity;BMP_temperature;BMP_pressure;BME280_temperature;BME280_humidity;BME280_pressure;Samples;Min_cycle;Max_cycle;Signal;HPM_P1;HPM_P2
2023/08/27 00:03:51;;;;;;;11.85;6.10;;;;;;;28.67;42.95;99032.94;7736982;32;38158;-84
2023/08/27 00:08:07;;;;;;;10.80;6.10;;;;;;;28.38;43.60;99045.09;7737666;32;39347;-84
2023/08/27 00:12:24;;;;;;;13.93;6.00;;;;;;;28.61;43.30;99041.78;7736884;32;40116;-84
2023/08/27 00:16:40;;;;;;;15.82;7.25;;;;;;;28.07;44.57;99042.09;7736419;32;38550;-84
2023/08/27 00:20:57;;;;;;;9.80;5.90;;;;;;;27.82;48.22;99042.19;7737082;32;37052;-84
2023/08/27 00:25:14;;;;;;;11.82;7.07;;;;;;;28.04;46.25;99040.09;7736615;32;39536;-84
2023/08/27 00:29:30;;;;;;;16.62;7.62;;;;;;;27.84;46.29;99045.38;7736387;32;40583;-84
2023/08/27 00:33:46;;;;;;;9.05;6.10;;;;;;;27.66;49.17;99093.03;7736141;32;37897;-84
2023/08/27 00:38:06;;;;;;;10.98;6.43;;;;;;;27.37;48.74;99075.53;7736193;32;38082;-84
2023/08/27 00:42:22;;;;;;;9.57;5.95;;;;;;;27.61;46.62;99076.66;7736226;32;39233;-84
2023/08/27 00:46:39;;;;;;;13.65;6.45;;;;;;;27.86;44.78;99087.00;7736448;32;39950;-84
2023/08/27 00:50:57;;;;;;;14.05;7.10;;;;;;;27.92;44.60;99090.97;7739689;32;38711;-84
2023/08/27 00:55:14;;;;;;;12.70;6.57;;;;;;;27.90;44.96;99082.94;7738519;32;37978;-84
2023/08/27 00:59:31;;;;;;;14.45;7.40;;;;;;;27.87;45.26;99088.56;7747627;32;38955;-84
2023/08/27 01:03:47;;;;;;;13.82;6.45;;;;;;;27.71;46.27;99087.03;7765356;32;40848;-84
2023/08/27 01:08:17;;;;;;;10.80;7.00;;;;;;;27.91;45.82;99086.56;7766338;32;38686;-84
2023/08/27 01:12:35;;;;;;;11.73;7.05;;;;;;;28.10;45.42;99080.50;7766450;32;37297;-84
2023/08/27 01:16:52;;;;;;;12.57;6.97;;;;;;;27.97;46.21;99087.75;7766037;32;39668;-84
2023/08/27 01:21:34;;;;;;;16.05;7.60;;;;;;;28.00;46.46;99089.75;7766192;32;39736;-84
2023/08/27 01:25:52;;;;;;;15.05;7.35;;;;;;;27.99;46.65;99090.16;7764449;32;37873;-83
2023/08/27 01:30:50;;;;;;;14.77;7.25;;;;;;;27.96;46.71;99091.78;7765077;32;36847;-83
2023/08/27 01:35:08;;;;;;;13.07;7.03;;;;;;;27.71;47.30;99081.44;7756163;32;39732;-83
2023/08/27 01:39:24;;;;;;;14.93;8.13;;;;;;;27.68;47.59;99082.25;7766037;32;40536;-83
2023/08/27 01:43:41;;;;;;;11.27;7.60;;;;;;;27.54;48.47;99093.47;7765977;32;38701;-83
2023/08/27 01:47:57;;;;;;;12.30;8.20;;;;;;;27.74;48.12;99099.44;7766007;32;37225;-83
2023/08/27 01:52:13;;;;;;;14.18;9.13;;;;;;;26.83;52.12;99103.50;7765989;32;39370;-83
2023/08/27 01:56:30;;;;;;;12.13;8.25;;;;;;;26.16;55.33;99113.31;7739967;32;39878;-84
2023/08/27 02:00:49;;;;;;;12.20;8.07;;;;;;;26.09;56.04;99108.50;7737643;32;37655;-83
2023/08/27 02:05:06;;;;;;;13.10;8.20;;;;;;;25.89;57.14;99115.56;7737683;32;37098;-83
2023/08/27 02:09:22;;;;;;;12.48;7.28;;;;;;;26.01;56.74;99102.13;7738868;32;39419;-83
2023/08/27 02:13:39;;;;;;;11.55;7.32;;;;;;;25.64;57.92;99110.69;7738737;32;39960;-82
2023/08/27 02:17:55;;;;;;;13.13;6.18;;;;;;;25.56;57.67;99128.56;7738462;32;38075;-83
2023/08/27 02:22:11;;;;;;;10.82;5.90;;;;;;;24.91;58.68;99131.63;7738587;32;37151;-83
2023/08/27 02:26:28;;;;;;;9.65;5.12;;;;;;;25.39;57.12;99111.34;7739262;32;40113;-82
2023/08/27 02:30:53;;;;;;;8.38;5.12;;;;;;;25.01;57.60;99102.25;7738586;32;39714;-83
2023/08/27 02:35:09;;;;;;;8.00;5.07;;;;;;;24.19;60.11;99111.38;7738370;32;38697;-82
2023/08/27 02:39:25;;;;;;;8.70;4.93;;;;;;;24.22;60.56;99107.03;7738471;32;36966;-83
2023/08/27 02:43:42;;;;;;;7.35;4.65;;;;;;;24.13;60.72;99112.13;7738205;32;39446;-83
2023/08/27 02:47:58;;;;;;;9.35;4.40;;;;;;;24.07;60.65;99119.19;7738387;32;39668;-82
2023/08/27 02:52:15;;;;;;;9.27;3.80;;;;;;;24.07;60.15;99121.97;7738239;32;37946;-83
2023/08/27 02:56:32;;;;;;;8.20;4.30;;;;;;;24.03;59.71;99123.91;7738171;32;37085;-84
2023/08/27 03:00:48;;;;;;;6.00;3.62;;;;;;;23.61;60.59;99118.19;7738221;32;39164;-84
2023/08/27 03:05:05;;;;;;;7.20;3.62;;;;;;;23.72;60.07;99118.31;7738096;32;40767;-84
2023/08/27 03:09:22;;;;;;;4.87;3.28;;;;;;;24.06;58.83;99118.41;7737559;32;38599;-84
2023/08/27 03:13:38;;;;;;;5.00;2.92;;;;;;;23.98;58.50;99119.47;7738099;32;37939;-84
2023/08/27 03:17:55;;;;;;;5.70;2.80;;;;;;;23.57;59.29;99131.22;7737804;32;39346;-84
2023/08/27 03:22:11;;;;;;;5.37;3.15;;;;;;;23.25;60.35;99133.53;7737493;32;40014;-84
2023/08/27 03:26:27;;;;;;;8.73;3.30;;;;;;;23.56;59.77;99135.19;7737704;32;38014;-83
2023/08/27 03:30:43;;;;;;;4.28;2.75;;;;;;;23.51;59.76;99135.53;7737789;32;37333;-84
2023/08/27 03:35:00;;;;;;;5.78;2.53;;;;;;;23.86;58.66;99148.34;7737725;32;39360;-84
2023/08/27 03:39:16;;;;;;;7.10;2.55;;;;;;;23.44;59.49;99158.47;7737595;32;39769;-84
2023/08/27 03:43:32;;;;;;;6.57;2.85;;;;;;;22.91;60.40;99157.56;7737479;32;37990;-84
2023/08/27 03:47:49;;;;;;;5.37;2.72;;;;;;;23.80;57.77;99159.00;7737473;32;37158;-84
2023/08/27 03:52:06;;;;;;;5.60;2.80;;;;;;;23.94;57.44;99169.53;7737443;32;39279;-84
2023/08/27 03:56:23;;;;;;;6.60;3.17;;;;;;;24.02;57.23;99175.19;7737204;32;40690;-84
2023/08/27 04:00:39;;;;;;;5.78;2.42;;;;;;;23.91;57.56;99175.06;7737170;32;37884;-83
2023/08/27 04:04:55;;;;;;;4.65;2.50;;;;;;;23.56;58.43;99176.09;7736867;32;37155;-84
2023/08/27 04:09:11;;;;;;;3.67;2.47;;;;;;;23.80;57.70;99174.88;7736909;32;40155;-84
2023/08/27 04:13:28;;;;;;;4.82;2.78;;;;;;;23.77;57.64;99170.06;7737261;32;39472;-84
2023/08/27 04:17:44;;;;;;;8.30;2.55;;;;;;;23.65;57.75;99170.28;7736163;32;37955;-84
2023/08/27 04:22:00;;;;;;;3.60;2.20;;;;;;;23.73;57.17;99169.19;7737399;32;37027;-83
2023/08/27 04:26:18;;;;;;;7.47;2.72;;;;;;;23.98;56.51;99153.69;7740288;32;39247;-83
2023/08/27 04:30:34;;;;;;;5.50;3.03;;;;;;;24.01;56.81;99160.47;7739997;32;40572;-83
2023/08/27 04:34:51;;;;;;;5.40;2.87;;;;;;;24.26;56.46;99148.84;7739929;32;37867;-84
2023/08/27 04:39:08;;;;;;;4.70;2.70;;;;;;;24.45;55.90;99143.09;7739913;32;37132;-83
2023/08/27 04:43:25;;;;;;;5.47;2.62;;;;;;;24.20;56.53;99148.41;7739929;32;40036;-84
2023/08/27 04:47:41;;;;;;;5.45;2.58;;;;;;;24.41;55.86;99155.41;7739320;32;39977;-83
2023/08/27 04:51:57;;;;;;;4.55;2.35;;;;;;;24.51;55.52;99168.66;7739572;32;37841;-83
2023/08/27 04:56:14;;;;;;;4.65;2.45;;;;;;;24.49;56.11;99173.78;7739639;32;38062;-83
2023/08/27 05:00:31;;;;;;;4.43;2.20;;;;;;;24.59;55.57;99184.28;7739770;32;39120;-83
2023/08/27 05:04:47;;;;;;;4.15;2.55;;;;;;;24.58;55.86;99173.50;7739565;32;39985;-83
2023/08/27 05:09:04;;;;;;;8.88;2.62;;;;;;;24.72;55.41;99168.88;7739468;32;38119;-83
2023/08/27 05:13:20;;;;;;;3.70;2.25;;;;;;;24.85;54.90;99168.63;7739259;32;37898;-83
2023/08/27 05:17:37;;;;;;;6.93;2.70;;;;;;;24.95;54.49;99162.34;7738050;32;39956;-83
2023/08/27 05:21:53;;;;;;;5.22;2.28;;;;;;;24.88;54.96;99165.84;7738095;32;41015;-83
2023/08/27 05:26:09;;;;;;;6.43;2.28;;;;;;;25.07;54.53;99177.97;7739174;32;38098;-72
2023/08/27 05:30:26;;;;;;;9.52;2.80;;;;;;;24.95;54.63;99162.34;7739355;32;37252;-71
2023/08/27 05:34:43;;;;;;;3.72;1.67;;;;;;;25.14;54.39;99160.53;7738937;32;40107;-72
2023/08/27 05:38:59;;;;;;;4.18;2.00;;;;;;;25.32;53.86;99158.72;7739057;32;40852;-71
2023/08/27 05:43:15;;;;;;;5.75;2.20;;;;;;;25.49;53.49;99151.62;7738980;32;38644;-71
2023/08/27 05:47:32;;;;;;;5.62;1.95;;;;;;;25.60;53.06;99151.72;7738815;32;37916;-71
2023/08/27 05:51:48;;;;;;;5.90;2.20;;;;;;;25.73;52.82;99147.41;7738930;32;39108;-71
2023/08/27 05:56:04;;;;;;;5.65;2.00;;;;;;;25.84;52.46;99142.69;7738867;32;39674;-71
2023/08/27 06:00:21;;;;;;;3.22;1.95;;;;;;;25.94;52.11;99145.91;7738183;32;38655;-72
2023/08/27 06:04:37;;;;;;;5.35;1.85;;;;;;;26.04;51.92;99156.38;7764067;32;37888;-72
2023/08/27 06:08:53;;;;;;;5.00;1.90;;;;;;;26.08;51.76;99148.00;7740089;32;39230;-76
2023/08/27 06:13:10;;;;;;;2.90;1.73;;;;;;;26.20;51.63;99142.88;7749894;32;40756;-72
2023/08/27 06:17:26;;;;;;;3.05;1.58;;;;;;;26.29;51.01;99138.94;7764064;32;37706;-72
2023/08/27 06:21:42;;;;;;;2.62;1.60;;;;;;;26.50;50.58;99119.41;7765734;32;37031;-72
2023/08/27 06:26:03;;;;;;;4.87;1.98;;;;;;;26.57;50.54;99127.03;7764144;32;39448;-71
2023/08/27 06:30:20;;;;;;;4.30;2.00;;;;;;;26.72;50.04;99116.69;7765171;32;40067;-73
2023/08/27 06:34:36;;;;;;;3.15;1.85;;;;;;;26.67;49.89;99114.28;7765271;32;37830;-73
2023/08/27 06:38:52;;;;;;;5.47;1.90;;;;;;;26.57;49.88;99099.84;7765299;32;37613;-73
2023/08/27 06:43:10;;;;;;;3.50;2.05;;;;;;;26.52;49.81;99085.50;7765057;32;40075;-72
2023/08/27 06:47:26;;;;;;;7.93;2.70;;;;;;;26.81;49.44;99080.75;7764134;32;40704;-73
2023/08/27 06:51:45;;;;;;;5.15;1.90;;;;;;;27.14;48.75;99067.56;7765195;32;38109;-72
2023/08/27 06:56:01;;;;;;;2.40;1.70;;;;;;;27.28;49.02;99066.75;7764869;32;37185;-72
2023/08/27 07:00:19;;;;;;;7.25;2.25;;;;;;;27.45;48.89;99081.91;7764112;32;39250;-72
2023/08/27 07:04:35;;;;;;;4.28;1.67;;;;;;;27.30;49.25;99087.56;7764601;32;40846;-73
2023/08/27 07:08:52;;;;;;;3.05;1.98;;;;;;;27.60;49.15;99100.28;7744244;32;38112;-72
2023/08/27 07:13:08;;;;;;;4.32;2.00;;;;;;;27.45;49.17;99096.69;7736771;32;36829;-72
2023/08/27 07:17:24;;;;;;;4.87;1.83;;;;;;;28.03;47.97;99074.94;7736513;32;39053;-72
2023/08/27 07:21:41;;;;;;;8.13;2.15;;;;;;;28.12;48.49;99082.12;7736575;32;40789;-73
2023/08/27 07:25:57;;;;;;;3.45;2.20;;;;;;;28.04;48.73;99084.91;7736462;32;38663;-73
2023/08/27 07:30:13;;;;;;;9.18;2.60;;;;;;;27.66;49.41;99076.25;7736507;32;37765;-73
2023/08/27 07:34:30;;;;;;;4.53;2.22;;;;;;;27.58;49.28;99066.28;7736143;32;37684;-72
2023/08/27 07:38:47;;;;;;;5.80;2.12;;;;;;;27.68;49.26;99064.66;7735823;32;40148;-73
2023/08/27 07:43:04;;;;;;;4.18;2.05;;;;;;;27.78;49.07;99079.81;7736028;32;38006;-73
2023/08/27 07:47:20;;;;;;;3.58;2.42;;;;;;;27.94;48.47;99065.38;7736102;32;37478;-73
2023/08/27 07:51:37;;;;;;;5.68;3.22;;;;;;;28.04;48.57;99059.72;7737121;32;40115;-71
2023/08/27 07:55:54;;;;;;;6.10;2.75;;;;;;;28.22;48.18;99056.03;7735705;32;40912;-73
2023/08/27 08:00:13;;;;;;;4.87;2.50;;;;;;;28.22;47.96;99054.03;7749624;32;37304;-72
2023/08/27 08:04:29;;;;;;;3.60;2.37;;;;;;;28.56;47.75;99055.44;7763350;32;35165;-71
2023/08/27 08:08:46;;;;;;;6.28;2.75;;;;;;;28.74;46.95;99039.28;7763282;32;37539;-76
2023/08/27 08:13:02;;;;;;;8.40;2.90;;;;;;;28.80;47.53;99036.81;7763047;32;39726;-76
2023/08/27 08:17:19;;;;;;;4.30;2.33;;;;;;;29.00;47.23;99043.44;7763082;32;38490;-75
2023/08/27 08:21:41;;;;;;;6.85;2.45;;;;;;;29.26;47.14;99040.44;7762950;32;37044;-75
2023/08/27 08:25:59;;;;;;;4.12;2.20;;;;;;;28.96;47.17;99030.66;7762287;32;40343;-75
2023/08/27 08:30:16;;;;;;;4.82;2.50;;;;;;;29.50;46.62;99030.12;7762265;32;39665;-73
2023/08/27 08:34:34;;;;;;;6.00;2.40;;;;;;;29.47;46.39;99028.16;7762240;32;37750;-73
2023/08/27 08:38:54;;;;;;;5.32;3.05;;;;;;;29.54;46.17;99026.06;7762043;32;37064;-74
2023/08/27 08:43:30;;;;;;;6.37;3.08;;;;;;;29.54;46.18;99026.06;7762178;32;38755;-74
2023/08/27 08:47:50;;;;;;;7.28;2.80;;;;;;;30.19;45.41;99011.19;7761772;32;40909;-73
2023/08/27 08:52:09;;;;;;;4.62;3.12;;;;;;;30.28;45.01;99011.44;7761675;32;38722;-73
2023/08/27 08:56:40;;;;;;;10.32;3.28;;;;;;;30.03;45.13;99014.62;7734483;32;37223;-74
2023/08/27 09:00:58;;;;;;;7.53;2.97;;;;;;;30.11;45.35;99009.69;7734669;32;39657;-78
2023/08/27 09:05:17;;;;;;;4.93;3.03;;;;;;;30.80;44.95;99006.62;7734699;32;40241;-82
2023/08/27 09:09:34;;;;;;;8.55;3.20;;;;;;;30.71;44.15;99001.56;7737052;32;38660;-89
2023/08/27 09:13:51;;;;;;;9.05;3.75;;;;;;;31.16;43.40;99003.19;7737789;32;37072;-90
2023/08/27 09:18:07;;;;;;;12.45;3.97;;;;;;;31.38;43.50;99001.56;7738510;32;39436;-91
2023/08/27 09:22:24;;;;;;;10.85;3.70;;;;;;;31.18;43.61;98992.28;7738360;32;40744;-89
2023/08/27 09:26:41;;;;;;;9.38;5.10;;;;;;;31.97;42.60;98991.47;7737982;32;38588;-90
2023/08/27 09:30:58;;;;;;;10.65;6.03;;;;;;;32.56;40.93;98977.63;7738240;32;37195;-90
2023/08/27 09:35:15;;;;;;;11.43;4.32;;;;;;;32.79;40.96;98989.97;7737793;32;39427;-90
2023/08/27 09:39:31;;;;;;;8.48;4.95;;;;;;;33.15;40.10;98984.22;7738039;32;39926;-84
2023/08/27 09:43:54;;;;;;;8.65;5.20;;;;;;;32.96;39.03;98982.28;7736891;32;37962;-83
2023/08/27 09:48:21;;;;;;;8.90;4.87;;;;;;;33.15;39.16;98981.41;7745478;32;37863;-82
2023/08/27 09:52:37;;;;;;;11.12;5.50;;;;;;;33.19;38.86;98973.59;7764711;32;39309;-82
2023/08/27 09:56:59;;;;;;;9.93;5.87;;;;;;;33.50;38.43;98975.97;7765690;32;39923;-82
2023/08/27 10:01:15;;;;;;;9.02;5.40;;;;;;;33.48;35.61;98973.59;7752160;32;38805;-81
2023/08/27 10:05:35;;;;;;;9.20;5.20;;;;;;;34.07;35.15;98972.69;7755562;32;37138;-81
2023/08/27 10:09:55;;;;;;;9.30;5.37;;;;;;;33.89;35.80;98970.41;7737776;32;40193;-81
2023/08/27 10:14:13;;;;;;;10.00;5.72;;;;;;;34.47;34.82;98964.50;7737798;32;39983;-82
2023/08/27 10:18:29;;;;;;;8.68;5.85;;;;;;;34.84;32.39;98952.78;7751874;32;37978;-82
2023/08/27 10:22:46;;;;;;;10.00;6.05;;;;;;;35.08;32.25;98945.44;7764737;32;37016;-82
2023/08/27 10:27:04;;;;;;;8.93;5.10;;;;;;;34.92;31.47;98939.97;7755262;32;40048;-82
2023/08/27 10:31:20;;;;;;;12.20;6.20;;;;;;;34.83;31.57;98940.66;7790551;32;40597;-83
2023/08/27 10:35:44;;;;;;;10.95;6.35;;;;;;;35.13;33.66;98932.72;7792282;32;37872;-84
2023/08/27 10:40:08;;;;;;;12.48;6.32;;;;;;;35.50;33.53;98927.34;7791210;32;36200;-83
2023/08/27 10:44:28;;;;;;;11.48;5.65;;;;;;;36.02;32.88;98922.09;7792126;32;38986;-82
2023/08/27 10:48:52;;;;;;;13.07;5.75;;;;;;;36.21;32.39;98905.94;7753117;32;39698;-82
2023/08/27 10:53:09;;;;;;;12.18;6.03;;;;;;;36.06;32.50;98915.00;7749418;32;37800;-84
2023/08/27 10:57:27;;;;;;;9.88;5.82;;;;;;;36.89;31.62;98908.69;7737546;32;35640;-82
2023/08/27 11:02:09;;;;;;;12.73;6.32;;;;;;;37.47;30.17;98903.28;7737444;32;39521;-84
2023/08/27 11:06:46;;;;;;;10.38;6.25;;;;;;;36.49;29.26;98903.94;7759355;32;40502;-83
2023/08/27 11:11:14;;;;;;;9.20;5.47;;;;;;;36.58;27.90;98903.16;7764342;32;37804;-84
2023/08/27 11:15:33;;;;;;;10.70;5.90;;;;;;;37.12;27.53;98895.09;7762022;32;36951;-82
2023/08/27 11:19:50;;;;;;;13.70;6.40;;;;;;;37.35;26.87;98900.12;7764241;32;40040;-83
2023/08/27 11:24:16;;;;;;;9.25;6.40;;;;;;;37.86;25.37;98892.91;7764048;32;39848;-82
2023/08/27 11:28:37;;;;;;;11.55;6.18;;;;;;;38.35;23.83;98890.13;7763635;32;37644;-83
2023/08/27 11:32:56;;;;;;;13.80;6.25;;;;;;;38.66;23.41;98889.75;7750275;32;37108;-82
2023/08/27 11:37:13;;;;;;;8.55;6.53;;;;;;;37.84;24.30;98889.72;7740003;32;39352;-81
2023/08/27 11:41:38;;;;;;;8.37;6.50;;;;;;;37.88;24.43;98898.09;7737572;32;39929;-81
2023/08/27 11:45:54;;;;;;;13.60;6.47;;;;;;;37.72;25.08;98899.25;7756512;32;37770;-81
2023/08/27 11:50:12;;;;;;;10.43;6.43;;;;;;;37.51;23.85;98901.03;7749100;32;37084;-89
2023/08/27 11:54:33;;;;;;;10.07;6.72;;;;;;;36.64;23.02;98904.88;7769545;32;39843;-88
2023/08/27 11:58:53;;;;;;;11.05;6.90;;;;;;;36.28;23.79;98911.31;7764814;32;39729;-86
2023/08/27 12:03:09;;;;;;;16.05;6.90;;;;;;;37.20;23.49;98902.87;7755316;32;37905;-86
2023/08/27 12:07:27;;;;;;;10.93;6.28;;;;;;;36.79;24.23;98907.12;7737269;32;37416;-88
2023/08/27 12:11:44;;;;;;;14.27;6.82;;;;;;;37.43;23.19;98911.97;7755777;32;39144;-86
2023/08/27 12:16:03;;;;;;;13.25;7.12;;;;;;;36.44;24.63;98910.22;7748327;32;40156;-87
2023/08/27 12:20:31;;;;;;;10.90;6.70;;;;;;;36.35;24.70;98910.22;7749744;32;37598;-89
2023/08/27 12:24:47;;;;;;;13.60;7.10;;;;;;;36.27;24.91;98904.84;7748394;32;37908;-87
2023/08/27 12:29:07;;;;;;;12.18;6.60;;;;;;;36.66;24.73;98901.59;7748897;32;40196;-86
2023/08/27 12:33:40;;;;;;;13.02;6.72;;;;;;;36.83;25.04;98905.72;7747972;32;40095;-86
2023/08/27 12:37:57;;;;;;;15.25;7.05;;;;;;;37.43;24.29;98894.94;7747116;32;37585;-88
2023/08/27 12:42:15;;;;;;;13.18;7.22;;;;;;;36.65;24.87;98900.00;7746828;32;37235;-87
2023/08/27 12:46:33;;;;;;;13.13;7.15;;;;;;;36.76;23.80;98888.22;7752826;32;40076;-88
2023/08/27 12:50:49;;;;;;;10.13;6.75;;;;;;;37.68;23.91;98879.53;7745638;32;40003;-88
2023/08/27 12:55:06;;;;;;;13.18;6.57;;;;;;;37.10;24.12;98883.44;7741609;32;38051;-87
2023/08/27 12:59:24;;;;;;;11.63;6.93;;;;;;;37.74;23.99;98880.47;7750491;32;36956;-89
2023/08/27 13:03:40;;;;;;;11.12;6.35;;;;;;;37.66;24.70;98873.53;7752729;32;38229;-88
2023/08/27 13:08:00;;;;;;;10.70;6.60;;;;;;;38.26;24.30;98873.91;7752250;32;40173;-88
2023/08/27 13:12:18;;;;;;;11.12;6.68;;;;;;;39.03;22.21;98856.06;7751795;32;37877;-87
2023/08/27 13:16:38;;;;;;;12.30;6.70;;;;;;;39.11;22.75;98862.12;7752430;32;35534;-86
2023/08/27 13:21:09;;;;;;;13.32;7.75;;;;;;;39.16;22.58;98852.13;7752593;32;39095;-85
2023/08/27 13:25:29;;;;;;;12.50;6.97;;;;;;;39.22;21.08;98839.53;7751173;32;39924;-84
2023/08/27 13:29:47;;;;;;;13.38;6.93;;;;;;;38.74;21.95;98851.09;7750039;32;36889;-85
2023/08/27 13:34:08;;;;;;;11.32;6.55;;;;;;;37.56;22.35;98854.91;7750974;32;37410;-87
2023/08/27 13:38:26;;;;;;;11.23;7.25;;;;;;;37.88;21.78;98844.84;7738141;32;40119;-86
2023/08/27 13:42:46;;;;;;;10.35;7.22;;;;;;;38.12;21.87;98830.66;7737820;32;39633;-87
2023/08/27 13:47:06;;;;;;;11.75;7.47;;;;;;;37.74;22.41;98834.19;7737386;32;37920;-87
2023/08/27 13:51:29;;;;;;;12.95;7.15;;;;;;;38.19;22.51;98823.00;7737955;32;37758;-87
2023/08/27 13:55:46;;;;;;;10.35;7.25;;;;;;;38.46;21.37;98814.28;7737719;32;40173;-87
2023/08/27 14:00:06;;;;;;;11.90;7.12;;;;;;;38.62;21.22;98815.09;7737730;32;39916;-87
2023/08/27 14:04:28;;;;;;;13.13;7.30;;;;;;;38.32;21.00;98810.09;7750132;32;37861;-86
2023/08/27 14:08:46;;;;;;;10.82;6.72;;;;;;;39.20;20.39;98805.03;7737608;32;37026;-86
2023/08/27 14:13:02;;;;;;;14.68;8.07;;;;;;;39.42;19.98;98801.75;7746280;32;40039;-85
2023/08/27 14:17:20;;;;;;;16.55;7.65;;;;;;;39.46;19.67;98801.56;7765428;32;39661;-86
2023/08/27 14:21:36;;;;;;;10.52;6.70;;;;;;;39.27;20.40;98805.91;7764828;32;38660;-85
2023/08/27 14:25:53;;;;;;;12.07;6.90;;;;;;;39.41;18.99;98790.84;7740932;32;37195;-84
2023/08/27 14:30:09;;;;;;;11.93;6.68;;;;;;;39.72;18.50;98795.22;7748085;32;39375;-88
2023/08/27 14:34:26;;;;;;;19.37;6.87;;;;;;;39.21;19.99;98794.44;7738125;32;40796;-85
2023/08/27 14:38:44;;;;;;;12.10;7.35;;;;;;;38.75;20.72;98794.91;7755248;32;37974;-86
2023/08/27 14:43:00;;;;;;;12.43;6.82;;;;;;;39.31;20.34;98789.37;7748521;32;37157;-87
2023/08/27 14:47:17;;;;;;;11.65;7.40;;;;;;;39.31;19.93;98789.37;7749048;32;39156;-88
2023/08/27 14:51:35;;;;;;;13.88;6.97;;;;;;;39.13;20.14;98794.03;7747076;32;39913;-86
2023/08/27 14:55:53;;;;;;;11.30;7.07;;;;;;;38.24;20.65;98793.88;7749752;32;37126;-87
2023/08/27 15:00:11;;;;;;;9.93;6.87;;;;;;;37.85;21.22;98799.53;7749546;32;35947;-87
2023/08/27 15:04:29;;;;;;;17.00;7.30;;;;;;;38.43;20.65;98788.84;7735284;32;39824;-88
2023/08/27 15:08:50;;;;;;;15.02;7.25;;;;;;;38.42;20.97;98784.44;7747518;32;40119;-88
2023/08/27 15:13:08;;;;;;;10.10;7.00;;;;;;;38.40;21.06;98782.06;7747714;32;37483;-89
2023/08/27 15:17:27;;;;;;;11.70;7.22;;;;;;;38.78;21.36;98774.78;7751994;32;35990;-88
2023/08/27 15:21:45;;;;;;;20.08;7.45;;;;;;;38.27;20.65;98779.47;7749932;32;38366;-86
2023/08/27 15:26:03;;;;;;;12.55;7.15;;;;;;;37.69;21.38;98786.50;7748372;32;40859;-87
2023/08/27 15:30:20;;;;;;;10.77;7.25;;;;;;;37.73;21.33;98782.19;7750078;32;37742;-87
2023/08/27 15:34:36;;;;;;;13.75;6.82;;;;;;;38.09;21.56;98768.22;7752658;32;37159;-88
2023/08/27 15:38:53;;;;;;;11.32;6.95;;;;;;;38.38;20.54;98778.94;7756620;32;40043;-85
2023/08/27 15:43:36;;;;;;;12.20;7.00;;;;;;;38.19;21.01;98771.81;7756466;32;40803;-86
2023/08/27 15:47:52;;;;;;;11.60;7.15;;;;;;;37.95;21.38;98772.59;7747709;32;39174;-85
2023/08/27 15:52:09;;;;;;;15.73;7.47;;;;;;;37.94;21.28;98771.00;7748529;32;35679;-87
2023/08/27 15:56:25;;;;;;;10.38;7.00;;;;;;;38.00;21.58;98774.78;7754517;32;39352;-86
2023/08/27 16:00:45;;;;;;;12.32;7.03;;;;;;;38.11;20.99;98780.72;7749013;32;39453;-88
2023/08/27 16:05:03;;;;;;;12.53;7.97;;;;;;;37.78;21.80;98788.50;7747587;32;37454;-88
2023/08/27 16:09:21;;;;;;;19.25;7.80;;;;;;;37.82;21.20;98783.44;7747522;32;37835;-89
2023/08/27 16:13:38;;;;;;;14.90;7.68;;;;;;;37.33;23.23;98783.31;7748728;32;40172;-88
2023/08/27 16:17:54;;;;;;;12.65;7.45;;;;;;;37.12;22.97;98790.00;7746923;32;39831;-89
2023/08/27 16:22:10;;;;;;;12.50;7.65;;;;;;;37.33;22.42;98776.88;7754320;32;37562;-88
2023/08/27 16:26:30;;;;;;;13.23;6.95;;;;;;;37.20;22.26;98785.59;7742110;32;37479;-85
2023/08/27 16:30:47;;;;;;;10.63;7.05;;;;;;;37.22;22.34;98777.38;7747482;32;39202;-86
2023/08/27 16:35:03;;;;;;;13.90;7.93;;;;;;;37.22;22.82;98777.38;7757021;32;40953;-86
2023/08/27 16:39:23;;;;;;;15.10;7.35;;;;;;;37.03;22.92;98777.41;7748885;32;38105;-89
2023/08/27 16:43:39;;;;;;;15.30;7.10;;;;;;;37.18;23.13;98774.69;7751664;32;37156;-87
2023/08/27 16:47:56;;;;;;;18.12;10.85;;;;;;;37.30;23.50;98767.22;7745207;32;39678;-87
2023/08/27 16:52:15;;;;;;;57.97;45.55;;;;;;;37.34;24.10;98762.19;7737254;32;39942;-87
2023/08/27 16:56:35;;;;;;;20.23;13.50;;;;;;;37.33;25.15;98765.50;7737299;32;38629;-87
2023/08/27 17:00:53;;;;;;;14.25;8.73;;;;;;;37.19;26.20;98766.97;7737246;32;37967;-86
2023/08/27 17:05:09;;;;;;;12.45;7.90;;;;;;;36.92;27.38;98762.91;7743326;32;40175;-86
2023/08/27 17:09:27;;;;;;;11.77;7.62;;;;;;;36.61;28.52;98761.06;7750570;32;40050;-85
2023/08/27 17:13:44;;;;;;;12.25;7.75;;;;;;;36.30;29.35;98772.59;7750302;32;37174;-86
2023/08/27 17:18:01;;;;;;;14.35;7.55;;;;;;;35.90;30.22;98774.28;7753161;32;37691;-86
2023/08/27 17:22:21;;;;;;;11.10;7.03;;;;;;;35.73;30.25;98764.47;7742207;32;40264;-87
2023/08/27 17:26:39;;;;;;;24.20;8.27;;;;;;;35.28;30.43;98768.72;7752746;32;40555;-88
2023/08/27 17:30:56;;;;;;;20.62;7.93;;;;;;;34.97;29.69;98767.44;7744504;32;37789;-90
2023/08/27 17:35:12;;;;;;;12.93;7.68;;;;;;;34.72;30.53;98774.06;7739233;32;37793;-90
2023/08/27 17:39:29;;;;;;;17.30;7.90;;;;;;;34.40;31.99;98776.00;7739169;32;39921;-89
2023/08/27 17:43:45;;;;;;;11.38;8.05;;;;;;;33.99;33.12;98779.84;7738917;32;39976;-90
2023/08/27 17:48:11;;;;;;;24.52;9.00;;;;;;;33.57;34.33;98786.47;7762728;32;37659;-91
2023/08/27 17:52:28;;;;;;;13.80;7.97;;;;;;;33.49;34.59;98776.63;7766009;32;36670;-91
2023/08/27 17:56:44;;;;;;;17.20;8.77;;;;;;;33.23;34.50;98787.13;7763777;32;39353;-90
2023/08/27 18:01:01;;;;;;;13.07;8.32;;;;;;;32.90;34.70;98793.72;7765673;32;39690;-91
2023/08/27 18:05:20;;;;;;;14.05;8.40;;;;;;;32.78;34.60;98802.16;7755877;32;38909;-90
2023/08/27 18:09:37;;;;;;;15.57;8.40;;;;;;;32.43;35.37;98813.97;7751718;32;37766;-90
2023/08/27 18:13:53;;;;;;;18.37;8.32;;;;;;;32.22;35.56;98823.00;7751323;32;39569;-91
2023/08/27 18:18:10;;;;;;;17.42;8.20;;;;;;;32.14;35.25;98831.66;7750689;32;40021;-91
2023/08/27 18:22:27;;;;;;;20.70;8.18;;;;;;;32.08;35.13;98827.78;7751486;32;37735;-91
2023/08/27 18:26:45;;;;;;;14.32;9.07;;;;;;;31.87;35.76;98831.88;7750549;32;37095;-91
2023/08/27 18:31:04;;;;;;;16.65;8.15;;;;;;;31.70;34.83;98833.13;7740590;32;38321;-88
2023/08/27 18:35:20;;;;;;;15.55;8.27;;;;;;;31.23;36.16;98836.97;7751653;32;40031;-87
2023/08/27 18:39:38;;;;;;;13.50;8.27;;;;;;;31.47;35.63;98832.00;7748875;32;37732;-89
2023/08/27 18:43:55;;;;;;;17.62;8.23;;;;;;;31.37;36.26;98822.56;7749925;32;37244;-87
2023/08/27 18:48:12;;;;;;;11.75;7.32;;;;;;;31.27;36.28;98823.62;7750230;32;39446;-82
2023/08/27 18:52:30;;;;;;;14.20;7.65;;;;;;;31.17;36.78;98831.06;7751631;32;38657;-87
2023/08/27 18:56:46;;;;;;;13.38;8.18;;;;;;;31.03;37.37;98849.06;7750219;32;38684;-84
2023/08/27 19:01:03;;;;;;;12.23;7.87;;;;;;;30.92;37.03;98839.22;7750686;32;37977;-81
2023/08/27 19:05:19;;;;;;;13.60;7.97;;;;;;;30.67;36.97;98843.31;7750936;32;39570;-81
2023/08/27 19:09:36;;;;;;;15.27;8.30;;;;;;;30.64;36.41;98844.97;7754417;32;39996;-81
2023/08/27 19:13:52;;;;;;;11.50;7.75;;;;;;;30.56;37.06;98837.88;7764843;32;38095;-81
2023/08/27 19:18:09;;;;;;;13.02;7.82;;;;;;;30.54;37.18;98836.75;7764884;32;37330;-82
2023/08/27 19:22:25;;;;;;;14.05;8.25;;;;;;;30.40;36.74;98829.38;7756325;32;39345;-86
2023/08/27 19:26:42;;;;;;;14.50;7.87;;;;;;;30.14;37.14;98829.00;7754437;32;40526;-84
2023/08/27 19:31:04;;;;;;;12.77;7.95;;;;;;;30.03;37.05;98834.00;7757358;32;38780;-85
2023/08/27 19:35:21;;;;;;;15.95;8.35;;;;;;;29.87;38.11;98831.84;7753215;32;37807;-84
2023/08/27 19:39:39;;;;;;;15.75;8.13;;;;;;;29.80;38.31;98826.34;7745353;32;39406;-85
2023/08/27 19:43:55;;;;;;;11.95;8.38;;;;;;;29.75;37.51;98831.22;7745655;32;39989;-85
2023/08/27 19:48:13;;;;;;;15.00;8.68;;;;;;;29.68;38.16;98827.72;7748963;32;37479;-85
2023/08/27 19:52:31;;;;;;;11.57;7.50;;;;;;;29.48;38.78;98838.84;7749746;32;37234;-85
2023/08/27 19:56:48;;;;;;;13.45;8.25;;;;;;;29.38;39.35;98840.59;7746539;32;38994;-85
2023/08/27 20:01:04;;;;;;;13.45;8.77;;;;;;;29.34;39.78;98834.25;7746348;32;39750;-85
2023/08/27 20:05:27;;;;;;;14.80;8.27;;;;;;;29.30;39.80;98839.09;7747159;32;37837;-85
2023/08/27 20:09:50;;;;;;;13.20;8.00;;;;;;;29.26;39.97;98839.16;7749084;32;37094;-85